Time;durP1;ratioP1;P1;durP2;ratioP2;P2;SDS_P1;SDS_P2;PMS_P1;PMS_P2;Temp;Humidity;BMP_temperature;BMP_pressure;BME280_temperature;BME280_humidity;BME280_pressure;Samples;Min_cycle;Max_cycle;Signal;HPM_P1;HPM_P2
2022/09/26 00:00:04;;;;;;;11.07;6.95;;;;;;;13.02;82.85;99074.53;350238;28;1715;-68
2022/09/26 00:00:16;;;;;;;11.60;6.93;;;;;;;13.02;83.10;99079.75;350036;28;1827;-69
2022/09/26 00:00:30;;;;;;;11.00;6.70;;;;;;;13.04;83.01;99075.31;349498;28;1754;-68
2022/09/26 00:00:42;;;;;;;10.15;6.43;;;;;;;13.06;82.90;99078.69;348938;28;1788;-68
2022/09/26 00:01:03;;;;;;;9.30;6.40;;;;;;;13.09;82.75;99075.06;349313;28;1933;-68
2022/09/26 00:01:21;;;;;;;11.95;6.65;;;;;;;13.04;82.88;99077.06;349062;28;1089;-68
2022/09/26 00:01:36;;;;;;;13.10;6.82;;;;;;;13.06;82.93;99076.06;349167;28;1785;-68
2022/09/26 00:01:48;;;;;;;10.13;6.45;;;;;;;13.06;82.83;99073.47;349922;28;1597;-69
2022/09/26 00:02:00;;;;;;;9.63;6.80;;;;;;;13.08;82.80;99084.66;348298;28;1687;-68
2022/09/26 00:02:12;;;;;;;9.80;6.80;;;;;;;13.10;82.87;99069.78;347693;28;1093;-69
2022/09/26 00:02:27;;;;;;;9.27;6.88;;;;;;;13.09;83.01;99077.66;351385;28;1305;-68
2022/09/26 00:02:39;;;;;;;9.82;6.70;;;;;;;13.11;82.69;99074.06;351716;28;1376;-68
2022/09/26 00:02:51;;;;;;;9.95;6.55;;;;;;;13.13;82.72;99074.81;349613;28;1805;-68
2022/09/26 00:03:03;;;;;;;10.90;6.68;;;;;;;13.15;82.52;99070.34;349659;28;1818;-68
2022/09/26 00:03:15;;;;;;;9.82;6.53;;;;;;;13.15;82.43;99070.34;348982;28;1201;-69
2022/09/26 00:03:27;;;;;;;9.93;6.43;;;;;;;13.14;82.62;99071.28;349402;28;1175;-68
2022/09/26 00:03:45;;;;;;;9.93;6.75;;;;;;;13.10;82.93;99076.72;349353;28;2193;-68
2022/09/26 00:04:00;;;;;;;9.55;7.07;;;;;;;13.07;82.59;99074.31;349995;28;1659;-69
2022/09/26 00:04:14;;;;;;;10.13;6.97;;;;;;;13.09;82.42;99072.44;348958;28;1020;-68
2022/09/26 00:04:27;;;;;;;10.48;6.90;;;;;;;13.09;82.48;99075.91;350832;28;1850;-68
2022/09/26 00:04:43;;;;;;;10.38;6.70;;;;;;;13.12;82.40;99075.75;349950;28;1647;-69
2022/09/26 00:04:55;;;;;;;10.48;6.93;;;;;;;13.13;82.62;99072.19;350440;28;1391;-68
2022/09/26 00:05:09;;;;;;;10.18;6.90;;;;;;;13.13;82.52;99072.19;351339;28;1295;-68
2022/09/26 00:05:21;;;;;;;9.27;7.00;;;;;;;13.13;82.23;99071.38;353254;27;1372;-69
2022/09/26 00:05:34;;;;;;;10.90;7.18;;;;;;;13.13;82.29;99077.41;354566;27;1044;-68
2022/09/26 00:05:46;;;;;;;11.70;7.28;;;;;;;13.13;82.38;99080.03;353658;27;1804;-69
2022/09/26 00:06:00;;;;;;;10.65;7.55;;;;;;;13.11;82.12;99079.28;351691;28;1594;-68
2022/09/26 00:06:14;;;;;;;10.38;7.25;;;;;;;13.11;82.21;99074.06;352042;28;1117;-68
2022/09/26 00:06:27;;;;;;;10.40;6.95;;;;;;;13.09;82.27;99075.91;351349;28;1353;-69
2022/09/26 00:06:39;;;;;;;10.35;6.95;;;;;;;13.07;82.42;99075.13;349107;28;2124;-69
2022/09/26 00:06:53;;;;;;;10.70;7.22;;;;;;;13.08;82.58;99069.00;348840;28;1683;-68
2022/09/26 00:07:05;;;;;;;11.10;7.10;;;;;;;13.10;82.43;99075.00;350971;28;1823;-68
2022/09/26 00:07:17;;;;;;;10.55;6.70;;;;;;;13.09;82.59;99070.69;349349;28;1621;-68
2022/09/26 00:07:29;;;;;;;10.05;6.60;;;;;;;13.10;82.56;99075.00;349293;28;2028;-68
2022/09/26 00:07:41;;;;;;;9.95;6.88;;;;;;;13.09;82.51;99075.91;350735;28;1057;-68
2022/09/26 00:07:53;;;;;;;9.07;6.53;;;;;;;13.10;82.31;99075.00;349261;28;2008;-68
2022/09/26 00:08:06;;;;;;;9.05;6.53;;;;;;;13.10;82.29;99072.38;349501;28;1727;-68
2022/09/26 00:08:18;;;;;;;9.50;7.00;;;;;;;13.07;82.45;99077.75;350169;28;1162;-68
2022/09/26 00:08:31;;;;;;;9.38;7.18;;;;;;;13.08;82.17;99073.34;352072;28;1092;-68
2022/09/26 00:08:44;;;;;;;9.18;6.63;;;;;;;13.03;82.45;99072.78;351957;28;1093;-69
2022/09/26 00:08:56;;;;;;;9.93;6.40;;;;;;;13.02;82.43;99074.53;349488;28;1593;-68
2022/09/26 00:09:09;;;;;;;10.13;6.72;;;;;;;13.04;82.45;99077.91;349288;28;2028;-68
2022/09/26 00:09:23;;;;;;;10.02;6.57;;;;;;;13.07;82.54;99076.91;350569;28;1567;-68
2022/09/26 00:09:35;;;;;;;10.32;6.32;;;;;;;13.08;82.45;99076.84;349541;28;1268;-68
2022/09/26 00:09:47;;;;;;;10.57;6.78;;;;;;;13.07;82.66;99072.53;349198;28;1677;-68
2022/09/26 00:09:59;;;;;;;10.18;6.93;;;;;;;13.08;82.52;99078.56;350461;28;1998;-68
2022/09/26 00:10:11;;;;;;;11.45;6.90;;;;;;;13.06;82.63;99070.00;350617;28;1262;-68
2022/09/26 00:10:23;;;;;;;9.98;6.57;;;;;;;13.07;82.56;99075.13;348903;28;1941;-68
2022/09/26 00:10:35;;;;;;;10.85;6.47;;;;;;;13.07;82.55;99075.13;349969;28;1798;-68
2022/09/26 00:10:56;;;;;;;10.27;6.47;;;;;;;13.06;82.73;99075.22;349429;28;1711;-68
2022/09/26 00:11:10;;;;;;;8.63;6.07;;;;;;;13.07;82.75;99077.75;348405;28;2108;-69
2022/09/26 00:11:29;;;;;;;8.90;6.35;;;;;;;13.06;82.58;99070.00;351114;28;1080;-69
2022/09/26 00:11:42;;;;;;;9.70;6.72;;;;;;;13.02;82.44;99074.53;349293;28;1065;-68
2022/09/26 00:11:54;;;;;;;9.25;6.55;;;;;;;13.02;82.72;99073.69;349292;28;1857;-68
2022/09/26 00:12:06;;;;;;;10.40;6.90;;;;;;;13.03;82.73;99076.22;348888;28;1908;-69
2022/09/26 00:12:18;;;;;;;12.65;6.82;;;;;;;13.02;82.87;99079.75;350955;28;1258;-68
2022/09/26 00:12:30;;;;;;;12.30;6.68;;;;;;;13.04;82.66;99072.69;349531;28;1562;-68
2022/09/26 00:12:42;;;;;;;10.60;6.03;;;;;;;13.09;82.40;99078.50;350405;28;1054;-68
2022/09/26 00:12:55;;;;;;;8.52;6.07;;;;;;;13.10;82.32;99075.00;349972;28;2115;-68
2022/09/26 00:13:07;;;;;;;11.75;6.45;;;;;;;13.09;82.50;99072.44;348255;28;1761;-69
2022/09/26 00:13:18;;;;;;;12.77;6.85;;;;;;;13.10;82.46;99076.72;350329;28;1330;-68
2022/09/26 00:13:31;;;;;;;11.35;7.00;;;;;;;13.10;82.66;99077.59;352096;28;1034;-68
2022/09/26 00:13:43;;;;;;;8.73;6.68;;;;;;;13.11;82.35;99079.28;352086;28;1092;-68
2022/09/26 00:13:59;;;;;;;9.05;6.60;;;;;;;13.06;82.42;99078.69;349333;28;1750;-68
2022/09/26 00:14:17;;;;;;;9.75;6.50;;;;;;;13.08;82.64;99079.44;350756;28;1060;-68
2022/09/26 00:14:29;;;;;;;13.10;6.88;;;;;;;13.10;82.34;99071.50;349164;28;1070;-68
2022/09/26 00:14:41;;;;;;;13.55;7.07;;;;;;;13.08;82.31;99079.44;348742;28;1727;-68
2022/09/26 00:14:53;;;;;;;11.63;7.00;;;;;;;13.09;82.45;99073.28;350159;28;1693;-70
2022/09/26 00:15:06;;;;;;;11.35;6.78;;;;;;;13.10;82.41;99077.59;349429;28;1750;-68
2022/09/26 00:15:18;;;;;;;11.68;6.78;;;;;;;13.12;82.54;99080.09;349953;28;1852;-68
2022/09/26 00:15:30;;;;;;;10.82;6.78;;;;;;;13.12;82.47;99075.75;350290;28;998;-68
2022/09/26 00:15:42;;;;;;;10.48;6.75;;;;;;;13.15;82.25;99080.78;350227;28;1084;-68
2022/09/26 00:15:55;;;;;;;8.60;6.50;;;;;;;13.16;82.27;99079.88;349639;28;1783;-68
2022/09/26 00:16:09;;;;;;;9.48;6.85;;;;;;;13.15;82.14;99079.97;350286;28;1242;-69
2022/09/26 00:16:21;;;;;;;10.65;7.07;;;;;;;13.12;82.06;99075.75;349505;28;1515;-68
2022/09/26 00:16:34;;;;;;;11.30;7.15;;;;;;;13.12;82.30;99074.88;350493;28;1077;-69
2022/09/26 00:16:47;;;;;;;10.85;6.82;;;;;;;13.08;82.27;99079.44;349717;28;1834;-69
2022/09/26 00:16:59;;;;;;;10.57;7.00;;;;;;;13.07;81.91;99077.75;350047;28;1371;-68
2022/09/26 00:17:11;;;;;;;11.20;7.00;;;;;;;13.08;82.13;99076.84;349856;28;1154;-68
2022/09/26 00:17:23;;;;;;;13.13;6.90;;;;;;;13.10;82.37;99076.72;352089;28;1267;-68
2022/09/26 00:17:35;;;;;;;13.55;6.80;;;;;;;13.11;82.31;99081.03;353649;27;1014;-68
2022/09/26 00:17:47;;;;;;;12.38;6.85;;;;;;;13.09;82.30;99081.13;352375;27;1905;-68
2022/09/26 00:17:59;;;;;;;10.98;6.90;;;;;;;13.09;82.27;99080.28;350622;28;1539;-68
2022/09/26 00:18:11;;;;;;;9.68;7.10;;;;;;;13.08;82.30;99079.44;350548;28;1070;-68
2022/09/26 00:18:23;;;;;;;9.07;6.70;;;;;;;13.11;82.12;99081.03;352552;27;1254;-68
2022/09/26 00:18:36;;;;;;;8.20;6.18;;;;;;;13.12;82.20;99075.75;351965;27;1696;-68
2022/09/26 00:18:49;;;;;;;9.45;6.15;;;;;;;13.14;82.25;99079.13;351115;28;2207;-68
2022/09/26 00:19:03;;;;;;;9.43;6.55;;;;;;;13.17;82.26;99083.31;350301;28;1154;-68
2022/09/26 00:19:15;;;;;;;9.27;6.53;;;;;;;13.17;82.20;99073.72;350399;28;875;-69
2022/09/26 00:19:27;;;;;;;9.65;6.40;;;;;;;13.18;82.10;99074.59;348650;28;1828;-68
2022/09/26 00:19:39;;;;;;;9.20;6.75;;;;;;;13.18;82.16;99080.66;350088;28;1704;-69
2022/09/26 00:19:51;;;;;;;10.10;7.03;;;;;;;13.19;82.06;99076.25;349303;28;1085;-68
2022/09/26 00:20:04;;;;;;;10.23;7.10;;;;;;;13.14;81.76;99071.28;349736;28;1018;-69
2022/09/26 00:20:16;;;;;;;10.73;6.90;;;;;;;13.18;81.98;99080.66;350502;28;1157;-69
2022/09/26 00:20:28;;;;;;;11.05;6.72;;;;;;;13.18;81.87;99074.59;351817;28;1021;-68
2022/09/26 00:20:40;;;;;;;11.48;6.70;;;;;;;13.17;81.99;99075.50;351684;28;1167;-69
2022/09/26 00:20:52;;;;;;;11.73;6.80;;;;;;;13.09;81.85;99075.91;349852;28;1588;-69
2022/09/26 00:21:06;;;;;;;10.68;6.57;;;;;;;13.06;82.17;99072.59;350749;28;1831;-68
2022/09/26 00:21:20;;;;;;;10.10;6.70;;;;;;;13.04;82.00;99077.91;350716;27;1328;-70
2022/09/26 00:21:32;;;;;;;11.02;6.82;;;;;;;12.98;82.57;99078.25;350756;28;1899;-68
2022/09/26 00:21:44;;;;;;;10.57;6.82;;;;;;;12.99;82.68;99069.47;349046;28;1991;-69
2022/09/26 00:21:56;;;;;;;10.48;6.95;;;;;;;13.03;82.77;99071.00;350044;28;2116;-68
2022/09/26 00:22:08;;;;;;;12.00;7.38;;;;;;;13.03;82.45;99072.78;349535;28;1952;-69
2022/09/26 00:22:20;;;;;;;11.10;7.32;;;;;;;13.07;82.63;99075.13;350139;28;1252;-69
2022/09/26 00:22:31;;;;;;;9.88;6.95;;;;;;;13.09;82.40;99073.28;352561;27;1196;-68
2022/09/26 00:22:43;;;;;;;10.25;6.70;;;;;;;13.12;82.37;99070.53;353481;27;1907;-69
2022/09/26 00:22:55;;;;;;;9.55;6.57;;;;;;;13.15;82.13;99072.13;350612;28;1638;-68
2022/09/26 00:23:07;;;;;;;8.82;6.65;;;;;;;13.16;82.39;99069.44;351158;28;1065;-68
2022/09/26 00:23:19;;;;;;;8.20;6.40;;;;;;;13.18;82.40;99067.59;350707;28;1310;-68
2022/09/26 00:23:31;;;;;;;9.07;6.70;;;;;;;13.17;82.27;99065.91;352151;28;1117;-68
2022/09/26 00:23:44;;;;;;;9.60;6.75;;;;;;;13.17;82.03;99070.28;350337;28;1660;-68
2022/09/26 00:23:57;;;;;;;10.63;7.13;;;;;;;13.18;81.93;99069.38;349872;28;1780;-68
2022/09/26 00:24:10;;;;;;;10.65;7.03;;;;;;;13.17;82.42;99063.28;349172;28;1034;-69
2022/09/26 00:24:21;;;;;;;9.85;6.90;;;;;;;13.18;81.90;99070.22;350713;28;1332;-69
2022/09/26 00:24:34;;;;;;;8.57;6.80;;;;;;;13.18;81.89;99065.00;349241;28;1776;-68
2022/09/26 00:24:46;;;;;;;9.30;7.05;;;;;;;13.19;82.14;99069.28;350020;28;1412;-68
2022/09/26 00:24:57;;;;;;;9.57;6.88;;;;;;;13.22;81.91;99070.03;350253;28;1028;-68
2022/09/26 00:25:09;;;;;;;9.10;6.43;;;;;;;13.23;81.84;99069.97;350530;28;1046;-68
2022/09/26 00:25:21;;;;;;;8.88;6.30;;;;;;;13.25;81.91;99064.66;349341;28;1696;-68
2022/09/26 00:25:34;;;;;;;8.38;6.50;;;;;;;13.26;81.78;99061.13;349193;28;1609;-68
2022/09/26 00:25:50;;;;;;;11.35;6.72;;;;;;;13.25;81.69;99062.88;349546;28;1668;-68
2022/09/26 00:26:03;;;;;;;11.10;6.82;;;;;;;13.25;81.67;99070.72;349771;28;1495;-69
2022/09/26 00:26:17;;;;;;;8.25;6.65;;;;;;;13.25;81.43;99062.88;350358;28;1371;-68
2022/09/26 00:26:30;;;;;;;8.85;6.57;;;;;;;13.24;81.54;99063.81;350314;28;1300;-69
2022/09/26 00:26:43;;;;;;;9.77;6.53;;;;;;;13.23;81.47;99056.06;348074;28;1860;-68
2022/09/26 00:26:55;;;;;;;10.32;6.72;;;;;;;13.24;81.56;99060.34;350080;28;1355;-69
2022/09/26 00:27:07;;;;;;;9.77;6.88;;;;;;;13.24;81.60;99058.59;350424;28;1289;-69
2022/09/26 00:27:19;;;;;;;10.15;6.70;;;;;;;13.24;81.53;99057.75;350823;28;1325;-68
2022/09/26 00:27:31;;;;;;;9.45;6.75;;;;;;;13.26;81.53;99055.91;349331;28;1741;-68
2022/09/26 00:27:44;;;;;;;9.80;7.10;;;;;;;13.26;81.69;99064.59;350629;28;1115;-69
2022/09/26 00:27:56;;;;;;;9.98;7.10;;;;;;;13.27;81.44;99057.59;349678;28;1654;-69
2022/09/26 00:28:08;;;;;;;10.68;7.18;;;;;;;13.28;81.48;99059.25;350520;28;1877;-68
2022/09/26 00:28:20;;;;;;;10.45;7.13;;;;;;;13.26;81.26;99061.13;350525;28;1258;-68
2022/09/26 00:28:32;;;;;;;10.93;7.13;;;;;;;13.29;81.43;99063.56;350336;28;1794;-68
2022/09/26 00:28:44;;;;;;;10.20;6.90;;;;;;;13.31;81.23;99061.75;352112;28;1247;-68
2022/09/26 00:28:58;;;;;;;10.05;6.60;;;;;;;13.31;81.21;99065.19;352174;28;1083;-68
2022/09/26 00:29:11;;;;;;;10.88;6.70;;;;;;;13.32;80.99;99066.03;352120;28;1025;-68
2022/09/26 00:29:23;;;;;;;10.98;7.00;;;;;;;13.29;80.98;99066.19;350942;28;1309;-68
2022/09/26 00:29:35;;;;;;;11.77;7.00;;;;;;;13.26;80.99;99061.97;350692;28;1181;-69
2022/09/26 00:29:47;;;;;;;12.05;7.18;;;;;;;13.23;80.92;99061.28;349182;28;2160;-69
2022/09/26 00:29:59;;;;;;;11.25;7.28;;;;;;;13.23;80.93;99071.72;349464;28;1611;-68
2022/09/26 00:30:11;;;;;;;9.25;7.20;;;;;;;13.18;81.09;99059.78;348872;28;2161;-69
2022/09/26 00:30:23;;;;;;;9.15;7.18;;;;;;;13.22;81.11;99064.81;349675;28;1849;-68
2022/09/26 00:30:36;;;;;;;9.88;7.18;;;;;;;13.21;81.23;99063.13;351540;28;1228;-68
2022/09/26 00:30:48;;;;;;;10.43;7.13;;;;;;;13.17;81.27;99063.28;349863;28;1768;-69
2022/09/26 00:31:09;;;;;;;11.32;7.32;;;;;;;13.18;81.27;99065.00;350188;28;2062;-68
2022/09/26 00:31:26;;;;;;;11.80;7.07;;;;;;;13.17;81.21;99063.28;349838;28;1360;-68
2022/09/26 00:31:40;;;;;;;10.93;7.10;;;;;;;13.19;81.32;99066.66;349714;28;1240;-68
2022/09/26 00:31:52;;;;;;;10.80;7.25;;;;;;;13.23;81.35;99067.34;348824;28;1861;-68
2022/09/26 00:32:05;;;;;;;11.57;7.25;;;;;;;13.21;81.10;99058.75;349743;28;1663;-68
2022/09/26 00:32:17;;;;;;;11.80;7.25;;;;;;;13.23;81.09;99061.28;350754;28;1338;-69
2022/09/26 00:32:29;;;;;;;11.10;7.20;;;;;;;13.21;81.03;99063.97;349216;28;1581;-68
2022/09/26 00:32:41;;;;;;;10.93;6.85;;;;;;;13.19;81.02;99061.44;349141;28;2281;-69
2022/09/26 00:32:52;;;;;;;9.38;6.88;;;;;;;13.16;81.28;99064.22;349224;28;1139;-68
2022/09/26 00:33:04;;;;;;;11.02;7.03;;;;;;;13.17;81.09;99063.28;349755;28;1022;-69
2022/09/26 00:33:16;;;;;;;11.73;7.28;;;;;;;13.16;81.08;99066.84;349796;28;1410;-68
2022/09/26 00:33:28;;;;;;;10.88;7.05;;;;;;;13.17;81.11;99058.06;351891;28;1060;-69
2022/09/26 00:33:40;;;;;;;10.65;7.10;;;;;;;13.19;81.07;99061.44;352103;28;1072;-69
2022/09/26 00:33:52;;;;;;;10.82;7.03;;;;;;;13.16;81.03;99066.84;348933;28;1537;-68
2022/09/26 00:34:05;;;;;;;10.57;6.97;;;;;;;13.13;81.16;99066.16;349918;28;1456;-68
2022/09/26 00:34:18;;;;;;;8.88;6.85;;;;;;;12.93;81.46;99057.59;350513;28;1630;-70
2022/09/26 00:34:30;;;;;;;8.75;6.90;;;;;;;12.98;81.85;99063.41;350922;28;1596;-69
2022/09/26 00:34:42;;;;;;;10.73;6.82;;;;;;;12.96;81.79;99067.03;350172;28;1881;-70
2022/09/26 00:34:54;;;;;;;10.55;6.65;;;;;;;12.99;81.63;99059.03;348796;28;1524;-68
2022/09/26 00:35:06;;;;;;;10.38;6.75;;;;;;;13.00;81.52;99060.75;348916;28;1062;-68
2022/09/26 00:35:18;;;;;;;9.77;6.93;;;;;;;13.03;81.69;99060.56;349463;28;1448;-68
2022/09/26 00:35:30;;;;;;;10.55;7.13;;;;;;;13.04;81.83;99057.03;351068;28;1797;-69
2022/09/26 00:35:50;;;;;;;11.00;6.90;;;;;;;13.07;81.36;99056.88;350655;28;1100;-69
2022/09/26 00:36:02;;;;;;;11.60;7.05;;;;;;;13.08;81.52;99061.19;348933;28;1061;-69
2022/09/26 00:36:15;;;;;;;12.23;7.43;;;;;;;13.08;81.48;99058.56;349035;28;1007;-69
2022/09/26 00:36:27;;;;;;;11.10;7.38;;;;;;;13.06;81.29;99063.03;349137;28;1643;-68
2022/09/26 00:36:49;;;;;;;9.93;7.07;;;;;;;13.07;81.31;99062.09;349790;28;1677;-68
2022/09/26 00:37:01;;;;;;;10.43;7.10;;;;;;;13.01;81.49;99062.41;350641;28;1093;-68
2022/09/26 00:37:12;;;;;;;11.13;7.10;;;;;;;13.02;81.25;99058.03;350398;28;1042;-68
2022/09/26 00:37:24;;;;;;;12.45;7.15;;;;;;;13.02;81.56;99058.91;349288;28;1245;-69
2022/09/26 00:37:36;;;;;;;11.65;7.05;;;;;;;13.03;81.42;99060.56;349432;28;1899;-69
2022/09/26 00:37:48;;;;;;;10.80;6.95;;;;;;;13.03;81.48;99051.91;349622;28;1814;-69
2022/09/26 00:38:01;;;;;;;11.05;6.95;;;;;;;13.04;81.43;99062.25;349330;28;1698;-69
2022/09/26 00:38:13;;;;;;;11.40;6.90;;;;;;;13.02;81.25;99056.28;349070;28;1318;-68
2022/09/26 00:38:25;;;;;;;11.10;6.82;;;;;;;13.03;81.47;99060.56;349803;28;1361;-69
2022/09/26 00:38:37;;;;;;;10.65;7.07;;;;;;;13.02;81.40;99058.03;348980;28;1265;-69
2022/09/26 00:38:48;;;;;;;13.00;7.20;;;;;;;13.05;81.40;99065.72;348574;28;1717;-68
2022/09/26 00:39:00;;;;;;;13.82;7.28;;;;;;;13.04;81.28;99057.03;348749;28;1641;-69
2022/09/26 00:39:14;;;;;;;12.40;7.57;;;;;;;13.05;81.30;99057.88;349044;28;1073;-68
2022/09/26 00:39:26;;;;;;;9.52;7.35;;;;;;;13.01;81.34;99057.19;351994;28;1049;-69
2022/09/26 00:39:38;;;;;;;10.18;7.32;;;;;;;12.98;81.33;99057.38;351988;28;1207;-69
2022/09/26 00:39:50;;;;;;;9.73;7.22;;;;;;;12.97;81.53;99056.50;348608;28;1906;-69
2022/09/26 00:40:03;;;;;;;9.80;7.10;;;;;;;12.98;81.40;99057.38;349904;28;1805;-68
2022/09/26 00:40:15;;;;;;;9.73;7.10;;;;;;;12.98;81.85;99055.59;348217;28;1818;-69
2022/09/26 00:40:29;;;;;;;10.35;7.25;;;;;;;12.98;81.72;99052.97;348995;28;1073;-68
2022/09/26 00:40:41;;;;;;;10.18;7.07;;;;;;;12.95;81.44;99055.75;348779;28;1058;-69
2022/09/26 00:40:53;;;;;;;10.95;7.32;;;;;;;12.94;81.45;99056.69;346906;28;1650;-69
2022/09/26 00:41:06;;;;;;;11.40;7.32;;;;;;;12.93;81.65;99059.34;347819;28;1927;-69
2022/09/26 00:41:18;;;;;;;11.35;7.38;;;;;;;12.84;81.94;99054.59;346872;28;1441;-69
2022/09/26 00:41:30;;;;;;;11.52;7.32;;;;;;;12.76;82.14;99050.63;347513;28;1019;-69
2022/09/26 00:41:42;;;;;;;12.30;7.43;;;;;;;12.81;82.05;99055.63;347977;28;1065;-68
2022/09/26 00:41:54;;;;;;;11.57;7.25;;;;;;;12.86;82.31;99052.75;346795;28;1815;-68
2022/09/26 00:42:11;;;;;;;10.48;7.13;;;;;;;12.92;82.31;99053.31;347875;28;1817;-68
2022/09/26 00:42:23;;;;;;;9.70;7.32;;;;;;;12.91;82.22;99056.00;349430;28;1676;-68
2022/09/26 00:42:35;;;;;;;11.13;7.80;;;;;;;12.86;81.97;99058.84;349784;28;2170;-69
2022/09/26 00:42:47;;;;;;;11.13;7.68;;;;;;;12.87;82.19;99059.69;349906;28;1767;-69
2022/09/26 00:42:59;;;;;;;11.15;7.53;;;;;;;12.87;82.23;99059.69;349181;28;1849;-69
2022/09/26 00:43:36;;;;;;;10.88;7.43;;;;;;;12.88;82.03;99059.59;349284;28;1076;-68
2022/09/26 00:43:51;;;;;;;10.35;7.38;;;;;;;12.86;82.20;99055.38;350356;28;2152;-68
2022/09/26 00:44:34;;;;;;;11.70;7.47;;;;;;;12.92;81.81;99052.47;349169;28;1769;-69
2022/09/26 00:44:53;;;;;;;12.13;7.80;;;;;;;12.93;81.67;99051.53;349085;28;1089;-68
2022/09/26 00:45:07;;;;;;;11.63;7.70;;;;;;;12.95;81.86;99057.50;349922;28;1860;-68
2022/09/26 00:45:22;;;;;;;10.52;7.43;;;;;;;12.94;81.90;99054.06;349821;28;1198;-68
2022/09/26 00:45:34;;;;;;;9.13;7.20;;;;;;;12.95;81.88;99054.91;348942;28;2478;-68
2022/09/26 00:45:47;;;;;;;8.90;7.40;;;;;;;12.94;81.83;99053.22;349532;28;1719;-68
2022/09/26 00:46:35;;;;;;;10.27;7.38;;;;;;;12.96;81.68;99054.00;350229;28;1708;-69
2022/09/26 00:46:48;;;;;;;10.27;7.10;;;;;;;12.94;81.73;99050.63;348070;28;1883;-68
2022/09/26 00:47:00;;;;;;;10.18;6.72;;;;;;;12.95;81.75;99050.53;350411;28;1093;-68
2022/09/26 00:47:43;;;;;;;11.57;6.78;;;;;;;12.90;81.89;99054.31;350343;28;1061;-69
2022/09/26 00:48:02;;;;;;;12.27;7.50;;;;;;;12.98;82.10;99057.38;348879;28;1656;-68
2022/09/26 00:48:16;;;;;;;10.70;7.30;;;;;;;13.01;81.93;99051.97;350287;28;1258;-68
2022/09/26 00:48:29;;;;;;;9.00;7.10;;;;;;;13.03;81.77;99051.91;348889;28;3515;-68
2022/09/26 00:48:45;;;;;;;9.38;7.15;;;;;;;13.04;81.67;99057.03;348886;28;1058;-68
2022/09/26 00:49:24;;;;;;;9.95;7.20;;;;;;;13.07;81.70;99054.25;349611;28;1738;-68
2022/09/26 00:49:41;;;;;;;9.75;7.03;;;;;;;13.01;81.54;99046.75;350692;28;1823;-68
2022/09/26 00:50:01;;;;;;;10.63;7.13;;;;;;;13.02;81.84;99053.69;348539;28;2083;-69
2022/09/26 00:50:21;;;;;;;10.38;7.18;;;;;;;13.01;81.75;99049.38;349096;28;1018;-68
2022/09/26 00:50:38;;;;;;;8.95;7.07;;;;;;;13.02;81.51;99051.06;350652;28;1184;-68
2022/09/26 00:50:51;;;;;;;9.32;7.05;;;;;;;13.05;81.49;99050.88;349983;28;2630;-69
2022/09/26 00:51:05;;;;;;;10.52;7.30;;;;;;;13.02;81.19;99051.06;350836;28;1468;-68
2022/09/26 00:51:17;;;;;;;10.48;7.45;;;;;;;12.98;81.30;99050.38;350705;28;1332;-68
2022/09/26 00:51:30;;;;;;;10.30;7.45;;;;;;;12.92;81.58;99052.47;354560;27;773;-69
2022/09/26 00:51:47;;;;;;;11.73;7.85;;;;;;;12.91;81.94;99050.78;353232;27;1263;-68
2022/09/26 00:52:06;;;;;;;11.88;7.72;;;;;;;12.93;81.52;99054.97;352082;27;1544;-68
2022/09/26 00:52:27;;;;;;;10.20;7.63;;;;;;;12.93;81.63;99054.13;352494;27;1375;-68
2022/09/26 00:52:44;;;;;;;10.75;7.43;;;;;;;12.89;82.06;99052.63;349876;28;1149;-68
2022/09/26 00:53:07;;;;;;;11.30;7.38;;;;;;;12.85;81.95;99057.13;349397;28;1913;-69
2022/09/26 00:53:26;;;;;;;10.05;7.28;;;;;;;12.76;82.29;99055.84;350989;28;1278;-70
2022/09/26 00:53:44;;;;;;;9.73;7.68;;;;;;;12.76;82.27;99049.81;348977;28;1752;-69
2022/09/26 00:53:56;;;;;;;10.23;7.63;;;;;;;12.75;82.73;99056.75;349199;28;1920;-68
2022/09/26 00:54:12;;;;;;;11.07;7.75;;;;;;;12.76;82.58;99048.03;349507;28;1743;-69
2022/09/26 00:54:27;;;;;;;11.33;7.80;;;;;;;12.78;82.32;99056.63;350130;28;1238;-68
2022/09/26 00:54:44;;;;;;;11.63;7.55;;;;;;;12.78;82.79;99061.84;350356;28;1235;-68
2022/09/26 00:55:00;;;;;;;11.35;7.40;;;;;;;12.72;82.82;99056.09;349142;28;2023;-69
2022/09/26 00:55:14;;;;;;;12.43;8.02;;;;;;;12.71;82.94;99059.63;350207;28;1185;-69
2022/09/26 00:55:29;;;;;;;14.10;8.50;;;;;;;12.73;82.87;99058.59;351848;28;1531;-68
2022/09/26 00:55:53;;;;;;;13.13;8.50;;;;;;;12.68;82.89;99058.00;350291;28;2190;-70
2022/09/26 00:56:17;;;;;;;11.88;8.25;;;;;;;12.69;83.21;99062.28;349873;28;1737;-69
2022/09/26 00:56:34;;;;;;;13.77;8.20;;;;;;;12.69;82.93;99056.25;348799;28;1327;-68
2022/09/26 00:56:52;;;;;;;12.85;7.72;;;;;;;12.70;83.24;99053.56;348946;28;2269;-69
2022/09/26 00:57:14;;;;;;;11.85;8.07;;;;;;;12.63;83.41;99054.78;349294;28;1466;-70
2022/09/26 00:57:34;;;;;;;12.10;8.23;;;;;;;12.59;83.78;99058.47;351583;28;1093;-69
2022/09/26 00:57:52;;;;;;;13.02;8.75;;;;;;;12.65;83.64;99059.94;350643;28;1107;-69
2022/09/26 00:58:18;;;;;;;11.45;8.23;;;;;;;12.63;83.69;99057.38;349092;28;1612;-69
2022/09/26 00:58:34;;;;;;;10.32;8.20;;;;;;;12.62;83.56;99060.94;351642;28;1042;-69
2022/09/26 00:58:54;;;;;;;11.88;8.27;;;;;;;12.67;83.50;99064.13;351832;28;1077;-69
2022/09/26 00:59:28;;;;;;;13.02;8.25;;;;;;;12.58;83.81;99055.03;349394;28;1807;-69
2022/09/26 00:59:47;;;;;;;13.50;8.45;;;;;;;12.56;83.82;99062.06;348977;28;1041;-68
2022/09/26 01:00:07;;;;;;;13.15;8.10;;;;;;;12.47;84.32;99053.88;349273;28;1657;-69
2022/09/26 01:00:20;;;;;;;12.18;8.10;;;;;;;12.57;84.06;99055.09;349053;28;1251;-68
2022/09/26 01:00:32;;;;;;;11.23;8.20;;;;;;;12.61;84.05;99054.00;349592;28;1360;-69
2022/09/26 01:00:46;;;;;;;9.93;8.05;;;;;;;12.67;84.04;99053.69;349444;28;1852;-69
2022/09/26 01:00:59;;;;;;;11.50;8.23;;;;;;;12.67;84.04;99056.31;349316;28;2152;-70
2022/09/26 01:01:12;;;;;;;12.10;8.48;;;;;;;12.69;83.58;99057.06;348685;28;1965;-69
2022/09/26 01:01:25;;;;;;;12.02;8.10;;;;;;;12.71;83.75;99055.22;350549;28;1342;-68
2022/09/26 01:01:37;;;;;;;11.82;7.75;;;;;;;12.69;83.47;99059.69;350384;28;1264;-69
2022/09/26 01:01:52;;;;;;;11.45;8.05;;;;;;;12.75;83.70;99056.75;350123;28;1794;-69
2022/09/26 01:02:04;;;;;;;10.85;8.13;;;;;;;12.76;83.22;99058.47;351313;28;1772;-69
2022/09/26 01:02:17;;;;;;;11.18;8.15;;;;;;;12.72;83.47;99051.72;351685;28;1415;-68
2022/09/26 01:02:29;;;;;;;12.57;7.90;;;;;;;12.76;83.14;99058.47;353227;27;1192;-69
2022/09/26 01:02:45;;;;;;;12.43;8.02;;;;;;;12.72;83.19;99051.72;353077;27;1220;-69
2022/09/26 01:02:57;;;;;;;10.80;7.90;;;;;;;12.66;83.24;99052.03;351542;28;2160;-69
2022/09/26 01:03:09;;;;;;;11.40;7.85;;;;;;;12.70;83.62;99053.56;353219;27;1046;-69
2022/09/26 01:03:23;;;;;;;12.00;8.05;;;;;;;12.70;83.42;99050.97;351691;28;1264;-69
2022/09/26 01:03:38;;;;;;;11.55;8.18;;;;;;;12.72;83.39;99056.94;351566;28;1144;-69
2022/09/26 01:03:50;;;;;;;11.82;8.10;;;;;;;12.72;83.00;99045.66;350378;28;1586;-68
2022/09/26 01:04:06;;;;;;;12.13;8.13;;;;;;;12.71;83.38;99049.19;349930;28;1687;-69
2022/09/26 01:04:18;;;;;;;12.75;8.20;;;;;;;12.70;83.36;99053.56;347865;28;1383;-68
2022/09/26 01:04:33;;;;;;;13.30;8.15;;;;;;;12.68;83.93;99050.19;351263;28;1056;-69
2022/09/26 01:04:46;;;;;;;11.68;8.13;;;;;;;12.61;83.47;99054.00;350104;28;1059;-68
2022/09/26 01:04:59;;;;;;;15.07;8.50;;;;;;;12.61;84.03;99048.81;348499;28;1887;-68
2022/09/26 01:05:14;;;;;;;17.33;8.60;;;;;;;12.64;83.96;99048.66;347413;28;1714;-68
2022/09/26 01:05:27;;;;;;;14.40;8.45;;;;;;;12.60;83.77;99049.75;349853;28;1062;-69
2022/09/26 01:05:39;;;;;;;13.90;8.35;;;;;;;12.61;83.83;99051.41;348919;28;1163;-69
2022/09/26 01:05:51;;;;;;;14.88;8.40;;;;;;;12.62;83.95;99047.91;348485;28;1876;-69
2022/09/26 01:06:03;;;;;;;12.80;8.43;;;;;;;12.67;84.03;99047.66;349126;28;1747;-69
2022/09/26 01:06:16;;;;;;;12.75;8.50;;;;;;;12.63;83.70;99046.97;349080;28;1029;-69
2022/09/26 01:06:28;;;;;;;11.93;8.00;;;;;;;12.64;83.86;99040.84;349160;28;1806;-69
2022/09/26 01:06:40;;;;;;;11.57;7.50;;;;;;;12.64;84.03;99047.81;350334;28;1054;-69
2022/09/26 01:06:58;;;;;;;11.23;7.40;;;;;;;12.69;83.76;99036.22;349150;28;1957;-70
2022/09/26 01:07:19;;;;;;;12.23;7.90;;;;;;;12.66;83.55;99041.59;351161;28;1771;-68
2022/09/26 01:07:33;;;;;;;11.70;8.02;;;;;;;12.69;83.67;99045.81;349949;28;1805;-70